Time;durP1;ratioP1;P1;durP2;ratioP2;P2;SDS_P1;SDS_P2;PMS_P1;PMS_P2;Temp;Humidity;BMP_temperature;BMP_pressure;BME280_temperature;BME280_humidity;BME280_pressure;Samples;Min_cycle;Max_cycle;Signal;HPM_P1;HPM_P2
2024/01/13 00:00:01;;;;;;;244.57;122.05;;;26.20;2201.60;;;;;;5058588;28;20449;-61
2024/01/13 00:02:27;;;;;;;196.73;109.05;;;26.10;2201.60;;;;;;5052852;28;20037;-60
2024/01/13 00:04:53;;;;;;;168.93;92.03;;;26.20;2201.60;;;;;;5061790;28;20033;-59
2024/01/13 00:07:19;;;;;;;159.07;93.75;;;26.30;2201.60;;;;;;5055096;28;20043;-60
2024/01/13 00:09:44;;;;;;;181.55;100.78;;;26.30;2201.60;;;;;;5054268;28;20029;-60
2024/01/13 00:12:10;;;;;;;141.73;76.00;;;26.30;2201.60;;;;;;5061501;28;20041;-60
2024/01/13 00:14:36;;;;;;;181.73;99.32;;;26.30;2201.60;;;;;;5059863;28;20037;-59
2024/01/13 00:17:02;;;;;;;184.02;100.50;;;26.20;2201.60;;;;;;5061638;28;20443;-62
2024/01/13 00:19:27;;;;;;;132.23;70.28;;;26.20;2201.60;;;;;;5060125;28;20532;-59
2024/01/13 00:21:53;;;;;;;114.80;62.10;;;26.30;2201.60;;;;;;5064462;28;20025;-59
2024/01/13 00:24:19;;;;;;;104.53;59.80;;;26.30;2201.60;;;;;;5058254;28;20037;-58
2024/01/13 00:26:45;;;;;;;106.55;52.80;;;26.40;2201.60;;;;;;5062467;28;20022;-61
2024/01/13 00:29:11;;;;;;;113.85;61.88;;;26.30;2201.60;;;;;;5063936;28;20036;-59
2024/01/13 00:31:37;;;;;;;99.88;54.90;;;26.30;2201.60;;;;;;5058603;28;20117;-60
2024/01/13 00:34:03;;;;;;;103.95;57.92;;;26.20;2201.60;;;;;;5057398;28;20124;-59
2024/01/13 00:36:29;;;;;;;98.68;52.65;;;26.30;2201.60;;;;;;5062215;28;20040;-61
2024/01/13 00:38:54;;;;;;;103.72;57.92;;;26.30;2201.60;;;;;;5073474;28;20060;-60
2024/01/13 00:41:20;;;;;;;103.38;58.90;;;26.20;2201.60;;;;;;5060356;28;20483;-58
2024/01/13 00:43:47;;;;;;;108.38;56.13;;;26.30;2201.60;;;;;;5073502;28;20028;-60
2024/01/13 00:46:13;;;;;;;121.32;64.28;;;26.10;2201.60;;;;;;5060140;28;20036;-59
2024/01/13 00:48:39;;;;;;;128.80;72.72;;;25.80;2201.60;;;;;;5061378;28;20087;-59
2024/01/13 00:51:07;;;;;;;115.65;62.95;;;25.70;2201.60;;;;;;5057579;28;20026;-59
2024/01/13 00:53:33;;;;;;;105.57;56.53;;;25.60;2201.60;;;;;;5060861;28;20055;-59
2024/01/13 00:55:59;;;;;;;124.25;64.05;;;25.60;2201.60;;;;;;5055543;28;20361;-61
2024/01/13 00:58:24;;;;;;;97.32;55.35;;;25.80;2201.60;;;;;;5055929;28;20120;-59
2024/01/13 01:00:50;;;;;;;91.80;52.67;;;26.00;2201.60;;;;;;5054249;28;20021;-60
2024/01/13 01:03:16;;;;;;;94.32;54.53;;;25.90;2201.60;;;;;;5060503;28;20108;-58
2024/01/13 01:05:42;;;;;;;92.22;51.10;;;25.90;2201.60;;;;;;5066797;28;20488;-59
2024/01/13 01:08:07;;;;;;;75.55;45.47;;;26.10;2201.60;;;;;;5066276;28;20029;-61
2024/01/13 01:10:33;;;;;;;87.90;47.95;;;26.00;2201.60;;;;;;5062384;28;20085;-60
2024/01/13 01:12:59;;;;;;;119.13;60.28;;;26.10;2201.60;;;;;;5057088;28;20047;-60
2024/01/13 01:15:24;;;;;;;84.10;48.92;;;26.10;2201.60;;;;;;5071916;28;20025;-61
2024/01/13 01:17:50;;;;;;;89.40;51.58;;;26.20;2201.60;;;;;;5057802;28;20040;-59
2024/01/13 01:20:16;;;;;;;108.25;64.75;;;26.00;2201.60;;;;;;5060326;28;20033;-59
2024/01/13 01:22:42;;;;;;;83.13;48.10;;;25.90;2201.60;;;;;;5058509;28;20040;-59
2024/01/13 01:25:08;;;;;;;132.30;71.15;;;26.00;2201.60;;;;;;5063221;28;20090;-58
2024/01/13 01:27:33;;;;;;;94.47;53.33;;;26.00;2201.60;;;;;;5060100;28;20025;-59
2024/01/13 01:29:59;;;;;;;156.40;83.10;;;25.90;2201.60;;;;;;5057397;28;20070;-60
2024/01/13 01:32:25;;;;;;;187.05;97.10;;;25.80;2201.60;;;;;;5056380;28;20029;-59
2024/01/13 01:34:50;;;;;;;181.07;89.78;;;25.90;2201.60;;;;;;5059453;28;20033;-59
2024/01/13 01:37:16;;;;;;;132.65;66.88;;;26.00;2201.60;;;;;;5061783;28;20383;-61
2024/01/13 01:39:42;;;;;;;116.43;58.78;;;26.00;2201.60;;;;;;5059161;28;20048;-59
2024/01/13 01:42:08;;;;;;;131.90;64.63;;;26.00;2201.60;;;;;;5061136;28;20119;-59
2024/01/13 01:44:33;;;;;;;145.35;74.65;;;26.00;2201.60;;;;;;5058871;28;20473;-58
2024/01/13 01:47:00;;;;;;;129.27;63.08;;;25.90;2201.60;;;;;;5069726;28;20064;-61
2024/01/13 01:49:26;;;;;;;84.78;50.92;;;26.00;2201.60;;;;;;5080088;28;20032;-61
2024/01/13 01:51:52;;;;;;;161.57;81.20;;;26.10;2201.60;;;;;;5089096;28;20741;-59
2024/01/13 01:54:18;;;;;;;129.23;68.05;;;26.20;2201.60;;;;;;5086351;28;20096;-59
2024/01/13 01:56:44;;;;;;;124.00;62.90;;;26.20;2201.60;;;;;;5070311;28;20486;-58
2024/01/13 01:59:10;;;;;;;136.95;65.82;;;26.20;2201.60;;;;;;5082157;28;20462;-58
2024/01/13 02:01:36;;;;;;;80.15;40.67;;;26.20;2201.60;;;;;;5088963;28;20025;-58
2024/01/13 02:04:03;;;;;;;121.18;60.65;;;26.30;2201.60;;;;;;5074389;28;20083;-58
2024/01/13 02:06:30;;;;;;;126.88;63.72;;;26.20;2201.60;;;;;;5088930;28;20031;-60
2024/01/13 02:08:56;;;;;;;120.32;58.00;;;26.00;2201.60;;;;;;5062614;28;20023;-58
2024/01/13 02:11:22;;;;;;;95.88;47.88;;;26.20;2201.60;;;;;;5089839;28;20287;-58
2024/01/13 02:13:48;;;;;;;61.83;34.00;;;26.20;2201.60;;;;;;5088620;28;20028;-58
2024/01/13 02:16:15;;;;;;;62.20;35.58;;;26.30;2201.60;;;;;;5067865;28;20036;-60
2024/01/13 02:18:41;;;;;;;58.22;33.17;;;26.20;2201.60;;;;;;5080513;28;20084;-58
2024/01/13 02:21:07;;;;;;;67.00;37.33;;;26.20;2201.60;;;;;;5053968;28;20100;-59
2024/01/13 02:23:33;;;;;;;60.45;36.33;;;26.30;2201.60;;;;;;5057194;28;20039;-59
2024/01/13 02:25:59;;;;;;;73.38;41.72;;;26.20;2201.60;;;;;;5067250;28;20016;-58
2024/01/13 02:28:24;;;;;;;72.47;40.70;;;26.40;2201.60;;;;;;5083220;28;20083;-58
2024/01/13 02:30:50;;;;;;;66.53;39.83;;;26.40;2201.60;;;;;;5068518;28;20065;-60
2024/01/13 02:33:16;;;;;;;64.95;37.58;;;26.40;2201.60;;;;;;5088088;28;20478;-61
2024/01/13 02:35:42;;;;;;;67.78;34.92;;;26.30;2201.60;;;;;;5088540;28;20023;-60
2024/01/13 02:38:07;;;;;;;67.57;35.08;;;26.50;2201.60;;;;;;5080782;28;20112;-58
2024/01/13 02:40:34;;;;;;;59.67;32.97;;;26.40;2201.60;;;;;;5069833;28;20440;-60
2024/01/13 02:43:00;;;;;;;159.23;73.00;;;26.40;2201.60;;;;;;5088174;28;20079;-58
2024/01/13 02:45:25;;;;;;;177.57;81.43;;;26.20;2201.60;;;;;;5087632;28;20052;-56
2024/01/13 02:48:16;;;;;;;75.45;43.03;;;26.20;2201.60;;;;;;5086023;28;20020;-58
2024/01/13 02:50:48;;;;;;;128.32;53.35;;;26.20;2201.60;;;;;;5083825;28;20028;-61
2024/01/13 02:53:14;;;;;;;62.05;32.72;;;26.20;2201.60;;;;;;5085683;28;20531;-58
2024/01/13 02:55:39;;;;;;;61.80;32.67;;;26.20;2201.60;;;;;;5081348;28;20032;-60
2024/01/13 02:58:06;;;;;;;120.30;53.33;;;26.20;2201.60;;;;;;5084843;28;20111;-61
2024/01/13 03:00:31;;;;;;;63.22;30.70;;;26.20;2201.60;;;;;;5079859;28;20071;-58
2024/01/13 03:02:57;;;;;;;60.88;31.00;;;26.20;2201.60;;;;;;5077033;28;20032;-59
2024/01/13 03:05:23;;;;;;;59.67;30.60;;;26.30;2201.60;;;;;;5081445;28;20055;-61
2024/01/13 03:07:49;;;;;;;52.65;29.15;;;26.30;2201.60;;;;;;5088344;28;20106;-61
2024/01/13 03:10:14;;;;;;;67.35;32.97;;;26.50;2201.60;;;;;;5086918;28;20493;-61
2024/01/13 03:12:40;;;;;;;66.53;37.30;;;26.50;2201.60;;;;;;5087811;28;20032;-58
2024/01/13 03:15:07;;;;;;;84.25;44.50;;;26.30;2201.60;;;;;;5084760;28;20024;-61
2024/01/13 03:17:32;;;;;;;70.20;37.72;;;26.40;2201.60;;;;;;5086512;28;20406;-60
2024/01/13 03:19:58;;;;;;;64.07;37.17;;;26.30;2201.60;;;;;;5082861;28;20109;-61
2024/01/13 03:22:24;;;;;;;62.28;31.20;;;26.40;2201.60;;;;;;5073164;28;20049;-61
2024/01/13 03:24:50;;;;;;;59.17;32.60;;;26.20;2201.60;;;;;;5050856;28;20025;-60
2024/01/13 03:27:15;;;;;;;61.83;34.45;;;26.30;2201.60;;;;;;5056258;28;20028;-58
2024/01/13 03:29:41;;;;;;;61.00;34.03;;;26.40;2201.60;;;;;;5068548;28;20044;-58
2024/01/13 03:32:07;;;;;;;58.42;31.48;;;26.40;2201.60;;;;;;5068590;28;20035;-58
2024/01/13 03:34:32;;;;;;;83.35;43.30;;;26.50;2201.60;;;;;;5068681;28;20482;-58
2024/01/13 03:36:59;;;;;;;59.22;32.50;;;26.40;2201.60;;;;;;5068828;28;20024;-58
2024/01/13 03:39:24;;;;;;;79.28;38.78;;;26.50;2201.60;;;;;;5070994;28;20017;-59
2024/01/13 03:41:50;;;;;;;72.65;38.72;;;26.50;2201.60;;;;;;5072575;28;20090;-60
2024/01/13 03:44:16;;;;;;;121.40;58.15;;;26.40;2201.60;;;;;;5072379;28;20028;-58
2024/01/13 03:46:41;;;;;;;128.55;61.80;;;26.50;2201.60;;;;;;5072386;28;20539;-61
2024/01/13 03:49:07;;;;;;;53.78;31.65;;;51.20;2227.20;;;;;;5072316;28;20381;-61
2024/01/13 03:51:33;;;;;;;59.15;31.08;;;26.50;2201.60;;;;;;5071815;28;20027;-58
2024/01/13 03:53:59;;;;;;;70.60;35.03;;;26.50;2201.60;;;;;;5072317;28;20086;-58
2024/01/13 03:56:24;;;;;;;58.10;30.35;;;26.50;2201.60;;;;;;5071896;28;20096;-58
2024/01/13 03:58:50;;;;;;;52.75;32.17;;;26.50;2201.60;;;;;;5072311;28;20024;-59
2024/01/13 04:01:16;;;;;;;65.80;36.53;;;26.40;2201.60;;;;;;5071952;28;20107;-62
2024/01/13 04:03:42;;;;;;;88.07;48.00;;;26.40;2201.60;;;;;;5072205;28;20143;-59
2024/01/13 04:06:08;;;;;;;58.33;35.45;;;26.30;2201.60;;;;;;5072186;28;20374;-60
2024/01/13 04:08:34;;;;;;;60.55;30.52;;;26.30;2201.60;;;;;;5071968;28;20028;-61
2024/01/13 04:11:00;;;;;;;50.05;27.20;;;26.30;2201.60;;;;;;5072084;28;20094;-58
2024/01/13 04:13:26;;;;;;;45.90;24.35;;;26.30;2201.60;;;;;;5071942;28;20033;-59
2024/01/13 04:15:51;;;;;;;52.03;26.80;;;26.30;2201.60;;;;;;5072158;28;20020;-59
2024/01/13 04:18:17;;;;;;;50.80;29.38;;;26.30;2201.60;;;;;;5072246;28;20379;-59
2024/01/13 04:20:43;;;;;;;47.85;25.45;;;26.40;2201.60;;;;;;5071697;28;20460;-58
2024/01/13 04:23:08;;;;;;;48.65;26.55;;;26.40;2201.60;;;;;;5071642;28;20025;-59
2024/01/13 04:25:34;;;;;;;40.90;21.20;;;26.40;2201.60;;;;;;5071406;28;20021;-61
2024/01/13 04:28:03;;;;;;;41.53;23.58;;;26.40;2201.60;;;;;;5071761;28;20031;-58
2024/01/13 04:30:29;;;;;;;43.30;22.25;;;26.30;2201.60;;;;;;5071505;28;20417;-58
2024/01/13 04:32:55;;;;;;;41.28;19.95;;;26.30;2201.60;;;;;;5071189;28;20032;-61
2024/01/13 04:35:20;;;;;;;37.15;21.10;;;26.40;2201.60;;;;;;5071403;28;20021;-59
2024/01/13 04:37:46;;;;;;;41.95;22.73;;;26.40;2201.60;;;;;;5071441;28;20078;-62
2024/01/13 04:40:12;;;;;;;49.20;26.17;;;26.40;2201.60;;;;;;5071027;28;20055;-59
2024/01/13 04:42:38;;;;;;;40.28;21.42;;;26.40;2201.60;;;;;;5071652;28;20030;-58
2024/01/13 04:45:04;;;;;;;37.08;23.60;;;26.10;2201.60;;;;;;5071195;28;20037;-58
2024/01/13 04:47:30;;;;;;;60.13;31.02;;;26.00;2201.60;;;;;;5071184;28;20024;-60
2024/01/13 04:49:56;;;;;;;88.78;44.78;;;25.90;2201.60;;;;;;5071361;28;20020;-60
2024/01/13 04:52:21;;;;;;;87.10;42.38;;;25.80;2201.60;;;;;;5071107;28;20436;-59
2024/01/13 04:54:47;;;;;;;88.40;42.50;;;25.80;2201.60;;;;;;5071247;28;20018;-58
2024/01/13 04:57:13;;;;;;;83.68;42.47;;;25.80;2201.60;;;;;;5070819;28;20501;-61
2024/01/13 04:59:39;;;;;;;113.68;55.63;;;25.70;2201.60;;;;;;5071052;28;20052;-58
2024/01/13 05:02:04;;;;;;;116.88;54.20;;;0.90;2201.60;;;;;;5070778;28;20029;-59
2024/01/13 05:04:30;;;;;;;66.10;35.15;;;0.80;2201.60;;;;;;5071210;28;20020;-58
2024/01/13 05:06:56;;;;;;;58.55;30.48;;;0.70;2201.60;;;;;;5071071;28;20497;-58
2024/01/13 05:09:21;;;;;;;67.30;34.47;;;0.70;2201.60;;;;;;5070633;28;20221;-58
2024/01/13 05:11:47;;;;;;;64.82;34.80;;;0.70;2201.60;;;;;;5071263;28;20036;-58
2024/01/13 05:14:15;;;;;;;45.78;27.20;;;0.70;2201.60;;;;;;5070452;28;20500;-60
2024/01/13 05:16:41;;;;;;;51.78;29.05;;;0.50;2201.60;;;;;;5070859;28;20374;-58
2024/01/13 05:19:06;;;;;;;49.20;25.48;;;0.50;2201.60;;;;;;5070495;28;20032;-58
2024/01/13 05:21:33;;;;;;;57.67;34.25;;;0.40;2201.60;;;;;;5070510;28;20481;-59
2024/01/13 05:23:59;;;;;;;66.18;34.50;;;0.30;2201.60;;;;;;5070916;28;20048;-58
2024/01/13 05:26:25;;;;;;;60.42;33.95;;;0.20;2201.60;;;;;;5070291;28;20500;-58
2024/01/13 05:28:51;;;;;;;57.50;30.42;;;0.30;2201.60;;;;;;5057057;28;20029;-58
2024/01/13 05:31:16;;;;;;;58.00;30.38;;;0.10;2201.60;;;;;;5070350;28;20021;-58
2024/01/13 05:33:42;;;;;;;55.92;29.02;;;0.30;2201.60;;;;;;5070369;28;20032;-59
2024/01/13 05:36:08;;;;;;;50.20;29.30;;;0.00;2201.60;;;;;;5070531;28;20583;-61
2024/01/13 05:38:34;;;;;;;49.22;26.95;;;0.00;2201.60;;;;;;5070126;28;20532;-58
2024/01/13 05:41:00;;;;;;;48.15;26.77;;;12.90;2201.60;;;;;;5069882;28;20052;-59
2024/01/13 05:43:26;;;;;;;77.32;42.00;;;12.90;2201.60;;;;;;5070162;28;20468;-58
2024/01/13 05:45:52;;;;;;;86.10;46.13;;;12.90;2201.60;;;;;;5070118;28;20112;-60
2024/01/13 05:48:18;;;;;;;187.55;102.18;;;12.90;2201.60;;;;;;5056985;28;20044;-57
2024/01/13 05:50:44;;;;;;;114.05;62.60;;;12.90;2201.60;;;;;;5070160;28;20062;-58
2024/01/13 05:53:09;;;;;;;67.82;37.38;;;13.00;2201.60;;;;;;5069877;28;20046;-58
2024/01/13 05:55:35;;;;;;;67.18;35.53;;;13.00;2201.60;;;;;;5069760;28;20051;-58
2024/01/13 05:58:01;;;;;;;53.35;29.33;;;13.00;2201.60;;;;;;5069963;28;20111;-58
2024/01/13 06:00:27;;;;;;;55.90;28.45;;;0.00;2201.60;;;;;;5069336;28;20025;-58
2024/01/13 06:02:53;;;;;;;38.15;23.92;;;12.90;2201.60;;;;;;5069555;28;20545;-58
2024/01/13 06:05:19;;;;;;;94.55;55.00;;;12.90;2201.60;;;;;;5069824;28;20024;-60
2024/01/13 06:07:44;;;;;;;61.05;35.10;;;12.90;2201.60;;;;;;5056498;28;20024;-61
2024/01/13 06:10:11;;;;;;;64.38;37.20;;;13.00;2201.60;;;;;;5069621;28;20072;-61
2024/01/13 06:12:36;;;;;;;72.38;43.22;;;13.20;2201.60;;;;;;5056344;28;20031;-58
2024/01/13 06:15:02;;;;;;;101.30;56.75;;;13.20;2201.60;;;;;;5069686;28;20024;-61
2024/01/13 06:17:28;;;;;;;66.80;39.33;;;13.20;2201.60;;;;;;5069966;28;20028;-58
2024/01/13 06:19:54;;;;;;;47.65;27.33;;;13.20;2201.60;;;;;;5069439;28;20047;-58
2024/01/13 06:22:19;;;;;;;51.22;26.73;;;13.30;2201.60;;;;;;5069729;28;20031;-58
2024/01/13 06:24:45;;;;;;;42.70;22.85;;;13.20;2201.60;;;;;;5069305;28;20079;-59
2024/01/13 06:27:11;;;;;;;49.72;29.05;;;13.10;2201.60;;;;;;5069458;28;20112;-58
2024/01/13 06:29:36;;;;;;;39.90;21.75;;;13.00;2201.60;;;;;;5069185;28;20174;-60
2024/01/13 06:32:02;;;;;;;39.85;21.10;;;13.00;2201.60;;;;;;5069697;28;20036;-58
2024/01/13 06:34:28;;;;;;;44.63;24.70;;;13.10;2201.60;;;;;;5069418;28;20028;-61
2024/01/13 06:36:55;;;;;;;37.20;20.63;;;13.00;2201.60;;;;;;5069417;28;20023;-58
2024/01/13 06:39:21;;;;;;;42.35;22.58;;;13.00;2201.60;;;;;;5069193;28;20398;-61
2024/01/13 06:41:46;;;;;;;70.05;38.63;;;13.00;2201.60;;;;;;5069273;28;20545;-58
2024/01/13 06:44:12;;;;;;;59.88;32.45;;;12.90;2201.60;;;;;;5069257;28;20032;-60
2024/01/13 06:46:38;;;;;;;55.35;29.75;;;12.90;2201.60;;;;;;5069310;28;20421;-58
2024/01/13 06:49:03;;;;;;;74.93;31.63;;;0.10;2201.60;;;;;;5068937;28;20036;-58
2024/01/13 06:51:29;;;;;;;44.40;23.20;;;0.20;2201.60;;;;;;5069325;28;20020;-58
2024/01/13 06:53:55;;;;;;;49.63;23.08;;;0.40;2201.60;;;;;;5069139;28;20035;-58
2024/01/13 06:56:21;;;;;;;71.43;36.13;;;0.50;2201.60;;;;;;5069403;28;20047;-58
2024/01/13 06:58:46;;;;;;;37.17;20.52;;;0.60;2201.60;;;;;;5068890;28;20063;-61
2024/01/13 07:01:15;;;;;;;42.50;22.90;;;0.90;2201.60;;;;;;5068864;28;20040;-58
2024/01/13 07:03:42;;;;;;;27.27;15.27;;;25.60;2201.60;;;;;;5069269;28;20032;-59
2024/01/13 07:06:08;;;;;;;34.63;17.48;;;25.70;2201.60;;;;;;5069409;28;20071;-58
2024/01/13 07:08:34;;;;;;;37.05;23.42;;;25.70;2201.60;;;;;;5069213;28;20103;-59
2024/01/13 07:11:00;;;;;;;35.83;20.90;;;25.60;2201.60;;;;;;5068886;28;20023;-60
2024/01/13 07:13:25;;;;;;;27.85;16.00;;;25.60;2201.60;;;;;;5069780;28;20048;-59
2024/01/13 07:15:53;;;;;;;35.67;19.27;;;25.60;2201.60;;;;;;5073287;28;20050;-58
2024/01/13 07:18:19;;;;;;;32.42;20.00;;;25.80;2201.60;;;;;;5073192;28;20063;-60
2024/01/13 07:20:45;;;;;;;41.10;22.83;;;25.80;2201.60;;;;;;5072951;28;20478;-58
2024/01/13 07:23:10;;;;;;;52.33;30.75;;;25.90;2201.60;;;;;;5072796;28;20024;-59
2024/01/13 07:25:36;;;;;;;52.80;33.85;;;25.80;2201.60;;;;;;5072850;28;20020;-59
2024/01/13 07:28:02;;;;;;;45.08;26.60;;;25.80;2201.60;;;;;;5072668;28;20151;-59
2024/01/13 07:30:28;;;;;;;54.88;35.30;;;25.80;2201.60;;;;;;5072864;28;20420;-58
2024/01/13 07:32:54;;;;;;;52.20;31.83;;;26.00;2201.60;;;;;;5072624;28;20115;-61
2024/01/13 07:35:20;;;;;;;63.78;37.60;;;26.10;2201.60;;;;;;5072796;28;20471;-59
2024/01/13 07:37:45;;;;;;;49.80;29.10;;;26.20;2201.60;;;;;;5072426;28;20021;-59
2024/01/13 07:40:11;;;;;;;40.20;26.65;;;26.20;2201.60;;;;;;5072466;28;20255;-59
2024/01/13 07:42:39;;;;;;;79.43;49.58;;;26.40;2201.60;;;;;;5072534;28;20104;-59
2024/01/13 07:45:05;;;;;;;67.10;47.83;;;26.50;2201.60;;;;;;5072422;28;20066;-59
2024/01/13 07:47:31;;;;;;;67.82;50.22;;;26.50;2201.60;;;;;;5072525;28;20024;-59
2024/01/13 07:49:57;;;;;;;42.15;28.88;;;51.30;2227.20;;;;;;5072404;28;20040;-58
2024/01/13 07:52:22;;;;;;;36.17;22.60;;;51.40;2227.20;;;;;;5072321;28;20036;-59
2024/01/13 07:54:48;;;;;;;38.83;21.33;;;51.40;2227.20;;;;;;5078879;28;20440;-59
2024/01/13 07:57:14;;;;;;;36.97;23.05;;;51.30;2227.20;;;;;;5067276;28;20009;-61
2024/01/13 07:59:40;;;;;;;44.88;23.30;;;51.50;2227.20;;;;;;5065574;28;20471;-60
2024/01/13 08:02:06;;;;;;;43.03;23.27;;;51.50;2227.20;;;;;;5074647;28;20060;-59
2024/01/13 08:04:32;;;;;;;38.10;24.20;;;51.40;2227.20;;;;;;5067699;28;20082;-61
2024/01/13 08:06:57;;;;;;;37.13;21.75;;;51.60;2227.20;;;;;;5068247;28;20020;-59
2024/01/13 08:09:23;;;;;;;44.15;25.45;;;51.70;2227.20;;;;;;5087457;28;20023;-59
2024/01/13 08:11:49;;;;;;;40.38;24.20;;;51.80;2227.20;;;;;;5080912;28;20021;-59
2024/01/13 08:14:16;;;;;;;41.47;26.77;;;51.80;2227.20;;;;;;5071564;28;20032;-59
2024/01/13 08:16:42;;;;;;;48.35;27.83;;;51.80;2227.20;;;;;;5068090;28;20029;-59
2024/01/13 08:19:10;;;;;;;47.70;27.08;;;51.60;2227.20;;;;;;5080981;28;20020;-59
2024/01/13 08:21:36;;;;;;;48.60;29.90;;;51.60;2227.20;;;;;;5071572;28;20023;-59
2024/01/13 08:24:02;;;;;;;48.95;29.08;;;51.70;2227.20;;;;;;5071123;28;20044;-59
2024/01/13 08:26:30;;;;;;;46.15;27.55;;;51.70;2227.20;;;;;;5071742;28;20055;-59
2024/01/13 08:28:56;;;;;;;41.85;25.30;;;51.80;2227.20;;;;;;5071218;28;20542;-59
2024/01/13 08:31:21;;;;;;;34.72;23.52;;;51.90;2227.20;;;;;;5071595;28;20125;-59
2024/01/13 08:33:47;;;;;;;37.28;22.17;;;51.90;2227.20;;;;;;5070969;28;20430;-61
2024/01/13 08:36:13;;;;;;;35.63;22.25;;;52.00;2227.20;;;;;;5070870;28;20031;-58
2024/01/13 08:38:39;;;;;;;36.75;20.80;;;76.80;2227.20;;;;;;5071064;28;20070;-59
2024/01/13 08:41:05;;;;;;;45.38;23.63;;;52.00;2227.20;;;;;;5070650;28;20048;-60
2024/01/13 08:43:30;;;;;;;38.75;21.92;;;51.90;2227.20;;;;;;5071119;28;20386;-59
2024/01/13 08:45:56;;;;;;;40.35;23.90;;;52.00;2227.20;;;;;;5075656;28;20028;-59
2024/01/13 08:48:22;;;;;;;43.85;24.70;;;52.00;2227.20;;;;;;5070815;28;20236;-59
2024/01/13 08:50:48;;;;;;;41.20;23.85;;;52.00;2227.20;;;;;;5070903;28;20477;-59
2024/01/13 08:53:13;;;;;;;43.58;26.35;;;52.00;2227.20;;;;;;5063177;28;20052;-58
2024/01/13 08:55:39;;;;;;;43.53;27.85;;;76.90;2227.20;;;;;;5074637;28;20032;-59
2024/01/13 08:58:05;;;;;;;46.95;29.40;;;76.80;2227.20;;;;;;5063618;28;20393;-59
2024/01/13 09:00:32;;;;;;;45.03;28.92;;;77.00;2227.20;;;;;;5066475;28;20025;-67
2024/01/13 09:02:58;;;;;;;52.10;30.23;;;77.20;2227.20;;;;;;5078432;28;20062;-65
2024/01/13 09:05:24;;;;;;;53.63;33.67;;;77.20;2227.20;;;;;;5070590;28;20032;-65
2024/01/13 09:07:50;;;;;;;61.45;37.20;;;77.40;2227.20;;;;;;5071055;28;20017;-68
2024/01/13 09:10:15;;;;;;;50.20;31.50;;;77.40;2227.20;;;;;;5070881;28;20028;-64
2024/01/13 09:12:41;;;;;;;56.95;33.70;;;77.70;2227.20;;;;;;5066162;28;20028;-69
2024/01/13 09:15:09;;;;;;;115.10;66.35;;;77.70;2227.20;;;;;;5065461;28;20085;-64
2024/01/13 09:17:37;;;;;;;138.85;72.40;;;102.40;2227.20;;;;;;5062713;28;20106;-70
2024/01/13 09:20:03;;;;;;;103.45;59.70;;;102.50;2227.20;;;;;;5070635;28;20035;-68
2024/01/13 09:22:29;;;;;;;65.53;40.28;;;102.50;2227.20;;;;;;5070577;28;20104;-70
2024/01/13 09:24:55;;;;;;;60.08;35.13;;;102.70;2227.20;;;;;;5070505;28;20103;-68
2024/01/13 09:27:21;;;;;;;49.65;27.00;;;102.80;2227.20;;;;;;5070553;28;20467;-67
2024/01/13 09:29:47;;;;;;;38.03;23.17;;;102.80;2227.20;;;;;;5070716;28;20082;-69
2024/01/13 09:32:13;;;;;;;43.13;25.60;;;102.70;2227.20;;;;;;5075580;28;20040;-67
2024/01/13 09:34:39;;;;;;;35.55;20.17;;;102.80;2227.20;;;;;;5071664;28;20060;-71
2024/01/13 09:37:05;;;;;;;37.53;19.35;;;103.00;2227.20;;;;;;5068918;28;20067;-66
2024/01/13 09:39:30;;;;;;;30.20;17.42;;;103.20;2227.20;;;;;;5081317;28;20028;-67
2024/01/13 09:41:58;;;;;;;27.35;17.05;;;103.30;2227.20;;;;;;5072442;28;20045;-72
2024/01/13 09:44:25;;;;;;;65.18;52.30;;;128.10;2252.80;;;;;;5076178;28;20029;-66
2024/01/13 10:04:08;;;;;;;26.05;17.02;;;128.60;2252.80;;;;;;5107155;27;20381;-83
2024/01/13 10:06:35;;;;;;;27.98;19.10;;;128.40;2252.80;;;;;;5101243;28;20027;-73
2024/01/13 10:09:01;;;;;;;34.45;24.02;;;128.20;2252.80;;;;;;5087458;28;20024;-70
2024/01/13 10:11:28;;;;;;;32.33;21.35;;;128.10;2252.80;;;;;;5098998;28;20031;-78
2024/01/13 10:14:01;;;;;;;22.42;12.27;;;128.00;2252.80;;;;;;5097488;28;20103;-76
2024/01/13 10:16:29;;;;;;;46.40;23.55;;;128.20;2252.80;;;;;;5106784;28;20023;-77
2024/01/13 10:18:57;;;;;;;18.95;12.90;;;128.40;2252.80;;;;;;5105043;28;20034;-75
2024/01/13 10:21:26;;;;;;;17.67;12.05;;;128.40;2252.80;;;;;;5106332;28;20166;-75
2024/01/13 10:23:56;;;;;;;19.48;11.15;;;128.40;2252.80;;;;;;5106412;28;20039;-75
2024/01/13 10:26:24;;;;;;;22.35;14.40;;;128.80;2252.80;;;;;;5094995;28;20434;-76
2024/01/13 10:28:53;;;;;;;20.50;12.50;;;128.80;2252.80;;;;;;5106447;28;20077;-77
2024/01/13 10:31:20;;;;;;;14.73;9.80;;;153.70;2252.80;;;;;;5104668;28;20031;-77
2024/01/13 10:33:49;;;;;;;13.60;9.10;;;153.70;2252.80;;;;;;5104946;28;20433;-77
2024/01/13 10:36:16;;;;;;;15.25;9.70;;;153.70;2252.80;;;;;;5105983;28;20103;-77
2024/01/13 10:38:43;;;;;;;18.17;13.70;;;153.80;2252.80;;;;;;5105133;28;20055;-78
2024/01/13 10:41:09;;;;;;;16.63;10.45;;;153.60;2252.80;;;;;;5104505;28;20063;-78
2024/01/13 10:43:43;;;;;;;38.78;26.92;;;153.70;2252.80;;;;;;5093213;28;20040;-77
2024/01/13 10:46:13;;;;;;;28.23;19.70;;;153.90;2252.80;;;;;;5104557;28;20381;-78
2024/01/13 10:48:45;;;;;;;16.83;10.00;;;153.80;2252.80;;;;;;5105681;28;20381;-78
2024/01/13 10:51:30;;;;;;;21.52;11.90;;;153.70;2252.80;;;;;;5103956;28;20422;-78
2024/01/13 10:54:01;;;;;;;19.50;11.82;;;128.90;2252.80;;;;;;5105572;28;20024;-78
2024/01/13 10:56:30;;;;;;;23.80;15.23;;;153.70;2227.20;;;;;;5105378;28;20051;-78
2024/01/13 10:58:58;;;;;;;22.30;15.23;;;153.60;2252.80;;;;;;5100542;28;20032;-79
2024/01/13 11:01:27;;;;;;;18.25;11.85;;;153.60;2252.80;;;;;;5101555;28;20416;-77
2024/01/13 11:03:54;;;;;;;19.67;12.82;;;154.00;2252.80;;;;;;5102402;28;20134;-78
2024/01/13 11:06:24;;;;;;;22.02;12.20;;;154.30;2227.20;;;;;;5094477;28;20026;-78
2024/01/13 11:08:52;;;;;;;82.28;46.30;;;154.10;2201.60;;;;;;5102873;28;20377;-78
2024/01/13 11:11:29;;;;;;;291.00;156.98;;;128.60;2227.20;;;;;;5104955;28;20031;-77
2024/01/13 11:14:13;;;;;;;35.05;18.00;;;153.70;2227.20;;;;;;5098411;28;20024;-77
2024/01/13 11:16:44;;;;;;;213.45;111.38;;;153.80;2227.20;;;;;;5080600;28;20016;-77
2024/01/13 11:19:10;;;;;;;23.67;12.77;;;153.60;2176.00;;;;;;5087232;28;20070;-79
2024/01/13 11:21:36;;;;;;;46.35;23.73;;;153.80;2201.60;;;;;;5079117;28;20034;-80
2024/01/13 11:24:12;;;;;;;12.98;8.00;;;153.90;2176.00;;;;;;5091039;28;20036;-78
2024/01/13 11:26:47;;;;;;;11.82;8.50;;;153.80;2176.00;;;;;;5090045;28;20062;-77
2024/01/13 11:29:19;;;;;;;16.77;12.70;;;153.60;2201.60;;;;;;5090052;28;20035;-76
2024/01/13 11:31:48;;;;;;;25.00;18.85;;;128.90;2201.60;;;;;;5091032;28;20020;-76
2024/01/13 11:34:16;;;;;;;13.02;8.35;;;153.60;2201.60;;;;;;5084101;28;20081;-77
2024/01/13 11:36:49;;;;;;;14.60;7.93;;;153.70;2201.60;;;;;;5090288;28;20466;-76
2024/01/13 11:39:17;;;;;;;20.63;13.37;;;153.90;2201.60;;;;;;5091244;28;20016;-77
2024/01/13 11:41:48;;;;;;;16.65;9.25;;;154.30;2176.00;;;;;;5090260;28;20021;-76
2024/01/13 11:44:34;;;;;;;72.85;39.30;;;179.30;2150.40;;;;;;5085041;28;20474;-76
2024/01/13 11:47:08;;;;;;;254.27;164.27;;;154.50;2124.80;;;;;;5073679;28;20033;-76
2024/01/13 11:49:38;;;;;;;32.92;21.45;;;179.20;2124.80;;;;;;5091055;28;20023;-77
2024/01/13 11:52:03;;;;;;;30.35;16.05;;;154.50;2124.80;;;;;;5083672;28;20048;-76
2024/01/13 11:54:31;;;;;;;19.15;11.43;;;154.40;2124.80;;;;;;5073587;28;20024;-76
2024/01/13 11:56:58;;;;;;;15.77;9.88;;;154.10;2124.80;;;;;;5091289;28;20020;-77
2024/01/13 11:59:24;;;;;;;47.17;24.73;;;154.10;2150.40;;;;;;5090936;28;20161;-76
2024/01/13 12:01:52;;;;;;;22.38;13.50;;;153.60;2201.60;;;;;;5079596;28;20055;-80
2024/01/13 12:04:18;;;;;;;64.25;36.83;;;128.60;2227.20;;;;;;5074966;28;20068;-77
2024/01/13 12:06:49;;;;;;;112.78;65.40;;;128.50;2227.20;;;;;;5078899;28;20074;-76
2024/01/13 12:09:16;;;;;;;44.55;24.55;;;128.40;2227.20;;;;;;5074088;28;20359;-76
2024/01/13 12:11:51;;;;;;;122.93;64.50;;;128.30;2252.80;;;;;;5076044;28;20036;-77
2024/01/13 12:14:16;;;;;;;64.15;37.97;;;128.20;2227.20;;;;;;5075748;28;20099;-76
2024/01/13 12:16:42;;;;;;;102.07;56.88;;;128.10;2252.80;;;;;;5090288;28;20112;-74
2024/01/13 12:19:08;;;;;;;66.18;36.05;;;128.20;2227.20;;;;;;5089715;28;20056;-76